createdAt,value
2019-04-28T00:01:15.680Z,19.40
2019-04-28T00:02:25.098Z,16.77
2019-04-28T00:03:29.518Z,14.20
2019-04-28T00:04:33.857Z,16.97
2019-04-28T00:05:38.216Z,20.83
2019-04-28T00:06:42.658Z,17.67
2019-04-28T00:07:47.055Z,16.83
2019-04-28T00:08:51.842Z,18.67
2019-04-28T00:09:56.354Z,17.10
2019-04-28T00:11:01.835Z,22.87
2019-04-28T00:12:06.530Z,21.07
2019-04-28T00:13:11.893Z,15.33
2019-04-28T00:14:16.620Z,20.03
2019-04-28T00:15:21.483Z,18.00
2019-04-28T00:16:27.730Z,19.13
2019-04-28T00:17:32.641Z,16.33
2019-04-28T00:18:38.969Z,21.10
2019-04-28T00:19:43.328Z,23.87
2019-04-28T00:21:05.652Z,22.47
2019-04-28T00:22:34.890Z,22.00
2019-04-28T00:24:01.774Z,18.23
2019-04-28T00:25:11.759Z,19.10
2019-04-28T00:26:26.852Z,16.77
2019-04-28T00:27:32.529Z,15.93
2019-04-28T00:28:36.974Z,17.77
2019-04-28T00:29:45.957Z,15.60
2019-04-28T00:30:47.852Z,14.10
2019-04-28T00:31:52.229Z,24.03
2019-04-28T00:32:56.716Z,15.70
2019-04-28T00:34:01.484Z,16.80
2019-04-28T00:35:06.283Z,14.30
2019-04-28T00:36:11.568Z,26.57
2019-04-28T00:37:26.789Z,20.67
2019-04-28T00:38:31.673Z,17.13
2019-04-28T00:39:36.254Z,15.50
2019-04-28T00:40:41.387Z,14.53
2019-04-28T00:41:46.096Z,22.50
2019-04-28T00:42:51.187Z,17.83
2019-04-28T00:43:55.698Z,14.20
2019-04-28T00:45:01.622Z,16.90
2019-04-28T00:46:08.193Z,17.90
2019-04-28T00:47:13.161Z,15.87
2019-04-28T00:48:17.527Z,20.23
2019-04-28T00:49:41.996Z,16.87
2019-04-28T00:50:46.681Z,18.10
2019-04-28T00:51:51.019Z,13.80
2019-04-28T00:52:55.912Z,15.00
2019-04-28T00:54:01.489Z,17.73
2019-04-28T00:55:06.666Z,19.23
2019-04-28T00:56:12.084Z,15.23
2019-04-28T00:57:17.143Z,13.07
2019-04-28T00:58:21.658Z,14.93
2019-04-28T00:59:25.982Z,12.30
2019-04-28T01:00:33.461Z,16.17
2019-04-28T01:01:57.019Z,16.90
2019-04-28T01:03:02.189Z,11.90
2019-04-28T01:04:06.805Z,14.80
2019-04-28T01:05:11.855Z,18.00
2019-04-28T01:06:16.242Z,18.83
2019-04-28T01:07:21.316Z,14.73
2019-04-28T01:08:25.925Z,12.10
2019-04-28T01:09:31.568Z,13.50
2019-04-28T01:10:36.133Z,10.83
2019-04-28T01:11:41.441Z,17.93
2019-04-28T01:12:47.169Z,16.17
2019-04-28T01:13:51.861Z,13.37
2019-04-28T01:14:59.669Z,9.67
2019-04-28T01:16:10.534Z,13.23
2019-04-28T01:17:34.732Z,12.03
2019-04-28T01:18:47.354Z,18.10
2019-04-28T01:19:52.652Z,15.37
2019-04-28T01:20:57.064Z,17.27
2019-04-28T01:22:11.913Z,19.37
2019-04-28T01:23:16.533Z,10.53
2019-04-28T01:24:20.892Z,14.07
2019-04-28T01:25:25.266Z,12.60
2019-04-28T01:26:30.277Z,11.83
2019-04-28T01:27:53.536Z,12.43
2019-04-28T01:28:59.570Z,10.63
2019-04-28T01:30:09.142Z,14.27
2019-04-28T01:31:30.600Z,12.37
2019-04-28T01:32:41.309Z,17.57
2019-04-28T01:34:04.791Z,12.67
2019-04-28T01:35:11.076Z,13.47
2019-04-28T01:36:15.726Z,14.10
2019-04-28T01:37:20.171Z,12.27
2019-04-28T01:38:24.565Z,14.43
2019-04-28T01:39:29.739Z,13.13
2019-04-28T01:40:34.266Z,10.53
2019-04-28T01:41:39.704Z,16.10
2019-04-28T01:42:44.509Z,16.33
2019-04-28T01:43:48.913Z,11.50
2019-04-28T01:44:53.487Z,15.73
2019-04-28T01:45:57.871Z,12.97
2019-04-28T01:47:03.720Z,10.63
2019-04-28T01:48:09.704Z,14.20
2019-04-28T01:49:14.603Z,12.80
2019-04-28T01:50:20.421Z,13.10
2019-04-28T01:51:25.101Z,12.20
2019-04-28T01:52:30.294Z,12.90
2019-04-28T01:53:34.915Z,10.00
2019-04-28T01:54:40.263Z,15.53
2019-04-28T01:55:44.823Z,16.43
2019-04-28T01:56:50.231Z,9.17
2019-04-28T01:57:54.808Z,15.93
2019-04-28T01:59:00.531Z,15.00
2019-04-28T02:00:21.390Z,14.83
2019-04-28T02:01:14.264Z,12.77
2019-04-28T02:02:19.892Z,14.73
2019-04-28T02:03:25.012Z,12.37
2019-04-28T02:04:30.071Z,10.30
2019-04-28T02:05:35.725Z,14.33
2019-04-28T02:06:40.775Z,10.07
2019-04-28T02:07:46.216Z,10.07
2019-04-28T02:08:51.327Z,11.53
2019-04-28T02:09:55.770Z,13.07
2019-04-28T02:11:01.999Z,10.07
2019-04-28T02:12:06.570Z,12.07
2019-04-28T02:13:11.413Z,11.23
2019-04-28T02:14:15.837Z,12.70
2019-04-28T02:15:20.340Z,9.97
2019-04-28T02:16:24.766Z,12.77
2019-04-28T02:17:30.472Z,16.27
2019-04-28T02:18:35.135Z,11.13
2019-04-28T02:19:40.953Z,11.73
2019-04-28T02:20:49.358Z,13.80
2019-04-28T02:22:16.005Z,10.87
2019-04-28T02:23:25.502Z,14.13
2019-04-28T02:24:31.302Z,15.20
2019-04-28T02:25:35.662Z,11.70
2019-04-28T02:26:41.792Z,10.80
2019-04-28T02:27:46.207Z,13.37
2019-04-28T02:28:50.612Z,9.73
2019-04-28T02:29:55.193Z,19.03
2019-04-28T02:31:02.025Z,11.50
2019-04-28T02:32:06.993Z,11.70
2019-04-28T02:33:13.605Z,15.27
2019-04-28T02:34:20.597Z,14.07
2019-04-28T02:35:24.351Z,14.17
2019-04-28T02:36:31.184Z,11.83
2019-04-28T02:37:34.885Z,12.50
2019-04-28T02:38:41.454Z,13.20
2019-04-28T02:39:45.345Z,7.23
2019-04-28T02:40:50.341Z,12.70
2019-04-28T02:41:56.898Z,11.13
2019-04-28T02:43:02.256Z,10.77
2019-04-28T02:44:06.813Z,12.23
2019-04-28T02:45:12.811Z,13.40
2019-04-28T02:46:17.379Z,11.90
2019-04-28T02:47:22.150Z,17.13
2019-04-28T02:48:27.311Z,11.50
2019-04-28T02:49:50.376Z,11.93
2019-04-28T02:51:17.827Z,12.87
2019-04-28T02:52:41.642Z,9.43
2019-04-28T02:53:51.042Z,13.63
2019-04-28T02:54:54.766Z,10.07
2019-04-28T02:56:00.865Z,18.43
2019-04-28T02:57:12.355Z,16.83
2019-04-28T02:58:16.787Z,16.43
2019-04-28T02:59:21.232Z,9.00
2019-04-28T03:00:25.774Z,11.80
2019-04-28T03:01:30.806Z,13.17
2019-04-28T03:02:35.806Z,11.50
2019-04-28T03:03:40.929Z,13.93
2019-04-28T03:04:45.610Z,13.00
2019-04-28T03:05:51.227Z,13.83
2019-04-28T03:06:55.812Z,10.73
2019-04-28T03:08:01.013Z,9.90
2019-04-28T03:09:07.373Z,15.63
2019-04-28T03:10:12.132Z,7.63
2019-04-28T03:11:16.819Z,15.93
2019-04-28T03:12:21.730Z,10.30
2019-04-28T03:13:26.597Z,13.93
2019-04-28T03:14:31.097Z,11.77
2019-04-28T03:15:35.561Z,12.53
2019-04-28T03:16:41.014Z,11.77
2019-04-28T03:17:45.733Z,9.73
2019-04-28T03:18:51.441Z,11.13
2019-04-28T03:19:56.135Z,17.73
2019-04-28T03:21:03.606Z,12.73
2019-04-28T03:22:11.250Z,11.23
2019-04-28T03:23:14.657Z,15.77
2019-04-28T03:24:21.831Z,9.77
2019-04-28T03:25:45.430Z,11.63
2019-04-28T03:26:56.796Z,13.00
2019-04-28T03:28:14.161Z,11.93
2019-04-28T03:29:41.342Z,13.47
2019-04-28T03:31:33.644Z,10.63
2019-04-28T03:32:30.509Z,13.13
2019-04-28T03:33:25.687Z,18.63
2019-04-28T03:34:43.679Z,13.93
2019-04-28T03:35:53.079Z,13.20
2019-04-28T03:36:54.455Z,14.27
2019-04-28T03:38:01.233Z,11.17
2019-04-28T03:39:07.241Z,11.17
2019-04-28T03:40:12.019Z,10.53
2019-04-28T03:41:22.498Z,10.80
2019-04-28T03:42:26.811Z,11.20
2019-04-28T03:43:31.384Z,12.23
2019-04-28T03:44:35.755Z,12.57
2019-04-28T03:45:45.925Z,17.03
2019-04-28T03:46:53.307Z,9.83
2019-04-28T03:48:00.206Z,12.53
2019-04-28T03:49:03.737Z,17.60
2019-04-28T03:50:10.428Z,11.00
2019-04-28T03:51:16.942Z,14.53
2019-04-28T03:52:21.647Z,16.20
2019-04-28T03:53:26.195Z,11.10
2019-04-28T03:54:31.241Z,9.77
2019-04-28T03:55:36.032Z,13.60
2019-04-28T03:56:41.285Z,10.50
2019-04-28T03:57:45.792Z,9.70
2019-04-28T03:58:50.522Z,11.70
2019-04-28T03:59:55.083Z,12.80
2019-04-28T04:01:02.674Z,8.87
2019-04-28T04:02:05.755Z,10.87
2019-04-28T04:03:11.107Z,11.77
2019-04-28T04:04:16.073Z,12.03
2019-04-28T04:05:21.013Z,10.87
2019-04-28T04:06:25.498Z,13.67
2019-04-28T04:07:31.084Z,9.27
2019-04-28T04:08:36.050Z,14.83
2019-04-28T04:10:00.918Z,9.03
2019-04-28T04:11:27.974Z,15.73
2019-04-28T04:12:57.452Z,11.93
2019-04-28T04:14:21.162Z,8.97
2019-04-28T04:15:54.828Z,13.00
2019-04-28T04:17:16.947Z,12.00
2019-04-28T04:18:42.113Z,12.90
2019-04-28T04:19:46.655Z,19.70
2019-04-28T04:20:51.398Z,14.03
2019-04-28T04:21:55.876Z,12.43
2019-04-28T04:23:01.406Z,9.63
2019-04-28T04:24:06.271Z,13.87
2019-04-28T04:25:12.663Z,11.43
2019-04-28T04:26:17.159Z,13.37
2019-04-28T04:27:22.646Z,12.23
2019-04-28T04:28:27.068Z,10.10
2019-04-28T04:29:31.778Z,15.50
2019-04-28T04:30:36.373Z,10.77
2019-04-28T04:31:41.410Z,12.70
2019-04-28T04:32:46.093Z,10.57
2019-04-28T04:33:51.461Z,15.13
2019-04-28T04:34:55.808Z,12.50
2019-04-28T04:36:01.662Z,10.27
2019-04-28T04:37:07.672Z,10.17
2019-04-28T04:38:12.714Z,10.80
2019-04-28T04:39:20.655Z,12.80
2019-04-28T04:40:24.827Z,11.00
2019-04-28T04:41:30.560Z,12.33
2019-04-28T04:42:36.467Z,12.50
2019-04-28T04:43:41.644Z,16.43
2019-04-28T04:44:46.501Z,12.80
2019-04-28T04:45:54.782Z,11.70
2019-04-28T04:47:01.063Z,11.20
2019-04-28T04:48:05.576Z,8.23
2019-04-28T04:49:10.756Z,9.37
2019-04-28T04:50:16.027Z,12.03
2019-04-28T04:51:21.424Z,12.20
2019-04-28T04:52:30.355Z,9.83
2019-04-28T04:53:32.339Z,15.80
2019-04-28T04:54:36.996Z,11.23
2019-04-28T04:55:41.647Z,11.97
2019-04-28T04:56:46.127Z,13.77
2019-04-28T04:57:50.793Z,18.60
2019-04-28T04:58:55.507Z,13.73
2019-04-28T05:00:00.711Z,11.87
2019-04-28T05:01:12.454Z,11.23
2019-04-28T05:02:29.377Z,15.07
2019-04-28T05:03:32.498Z,14.37
2019-04-28T05:05:00.622Z,11.57
2019-04-28T05:06:24.015Z,11.83
2019-04-28T05:07:29.717Z,8.53
2019-04-28T05:08:34.089Z,9.97
2019-04-28T05:09:39.524Z,10.50
2019-04-28T05:10:44.266Z,12.47
2019-04-28T05:11:49.918Z,10.77
2019-04-28T05:12:54.476Z,8.90
2019-04-28T05:13:59.641Z,13.40
2019-04-28T05:15:04.792Z,14.23
2019-04-28T05:16:10.480Z,13.53
2019-04-28T05:17:15.193Z,10.30
2019-04-28T05:18:20.017Z,11.17
2019-04-28T05:19:24.572Z,12.60
2019-04-28T05:20:30.276Z,11.30
2019-04-28T05:21:34.986Z,10.47
2019-04-28T05:22:46.044Z,14.10
2019-04-28T05:24:15.797Z,11.30
2019-04-28T05:25:39.601Z,14.17
2019-04-28T05:26:47.720Z,17.57
2019-04-28T05:27:54.590Z,11.37
2019-04-28T05:28:56.688Z,9.07
2019-04-28T05:30:03.988Z,11.70
2019-04-28T05:31:07.368Z,10.43
2019-04-28T05:32:12.456Z,8.73
2019-04-28T05:33:33.443Z,9.50
2019-04-28T05:34:39.820Z,10.20
2019-04-28T05:35:41.782Z,13.40
2019-04-28T05:36:46.230Z,12.13
2019-04-28T05:37:51.640Z,15.70
2019-04-28T05:38:57.832Z,10.10
2019-04-28T05:40:03.565Z,11.03
2019-04-28T05:41:10.427Z,16.20
2019-04-28T05:42:14.776Z,10.30
2019-04-28T05:43:19.570Z,11.63
2019-04-28T05:44:25.895Z,11.77
2019-04-28T05:45:32.174Z,11.10
2019-04-28T05:46:36.929Z,12.70
2019-04-28T05:47:41.284Z,14.30
2019-04-28T05:48:55.718Z,12.07
2019-04-28T05:50:14.468Z,14.73
2019-04-28T05:51:20.002Z,14.70
2019-04-28T05:52:50.193Z,11.33
2019-04-28T05:54:05.068Z,12.83
2019-04-28T05:55:14.325Z,13.30
2019-04-28T05:56:43.735Z,15.50
2019-04-28T05:57:53.878Z,8.77
2019-04-28T05:59:05.091Z,17.53
2019-04-28T06:00:29.809Z,15.37
2019-04-28T06:01:53.365Z,13.95
2019-04-28T06:02:58.259Z,14.97
2019-04-28T06:04:03.179Z,16.07
2019-04-28T06:05:07.564Z,14.23
2019-04-28T06:06:12.218Z,9.73
2019-04-28T06:07:26.446Z,13.15
2019-04-28T06:08:50.995Z,7.03
2019-04-28T06:09:56.014Z,12.83
2019-04-28T06:11:01.898Z,7.00
2019-04-28T06:12:10.279Z,9.83
2019-04-28T06:13:16.704Z,8.30
2019-04-28T06:14:21.015Z,9.83
2019-04-28T06:15:25.406Z,10.43
2019-04-28T06:16:30.447Z,13.27
2019-04-28T06:17:34.985Z,7.50
2019-04-28T06:18:42.035Z,11.07
2019-04-28T06:19:47.151Z,9.47
2019-04-28T06:20:51.744Z,9.95
2019-04-28T06:21:56.141Z,12.53
2019-04-28T06:23:00.886Z,11.73
2019-04-28T06:24:05.721Z,12.80
2019-04-28T06:25:10.107Z,13.55
2019-04-28T06:26:14.730Z,10.78
2019-04-28T06:27:19.128Z,10.23
2019-04-28T06:28:25.253Z,15.43
2019-04-28T06:29:29.586Z,9.48
2019-04-28T06:30:33.904Z,7.97
2019-04-28T06:31:38.255Z,11.55
2019-04-28T06:32:44.063Z,14.43
2019-04-28T06:33:48.512Z,14.85
2019-04-28T06:34:52.882Z,15.40
2019-04-28T06:35:57.212Z,10.40
2019-04-28T06:37:01.703Z,11.85
2019-04-28T06:38:07.504Z,17.60
2019-04-28T06:39:12.260Z,11.30
2019-04-28T06:40:16.807Z,11.08
2019-04-28T06:41:22.337Z,11.60
2019-04-28T06:42:28.264Z,12.53
2019-04-28T06:43:32.580Z,9.48
2019-04-28T06:44:36.976Z,11.75
2019-04-28T06:45:41.363Z,13.13
2019-04-28T06:46:45.791Z,16.50
2019-04-28T06:47:50.278Z,8.90
2019-04-28T06:48:54.707Z,10.00
2019-04-28T06:49:59.182Z,15.75
2019-04-28T06:51:03.547Z,10.48
2019-04-28T06:52:07.994Z,11.00
2019-04-28T06:53:13.546Z,10.43
2019-04-28T06:54:18.101Z,11.03
2019-04-28T06:55:22.573Z,10.00
2019-04-28T06:56:26.983Z,8.48
2019-04-28T06:57:31.435Z,20.60
2019-04-28T06:58:35.849Z,7.50
2019-04-28T06:59:40.287Z,17.67
2019-04-28T07:00:44.652Z,10.20
2019-04-28T07:01:49.232Z,12.70
2019-04-28T07:02:53.585Z,11.60
2019-04-28T07:03:59.241Z,10.03
2019-04-28T07:05:03.780Z,7.92
2019-04-28T07:06:09.058Z,10.32
2019-04-28T07:07:15.116Z,9.18
2019-04-28T07:08:19.511Z,7.30
2019-04-28T07:09:23.887Z,12.98
2019-04-28T07:10:28.450Z,9.98
2019-04-28T07:11:32.827Z,14.03
2019-04-28T07:12:38.285Z,13.20
2019-04-28T07:13:44.942Z,14.03
2019-04-28T07:14:49.418Z,9.75
2019-04-28T07:15:54.284Z,12.90
2019-04-28T07:16:58.951Z,10.50
2019-04-28T07:18:03.584Z,11.75
2019-04-28T07:19:08.438Z,10.58
2019-04-28T07:20:30.517Z,9.98
2019-04-28T07:21:40.207Z,13.40
2019-04-28T07:22:45.029Z,9.38
2019-04-28T07:23:49.668Z,10.95
2019-04-28T07:24:54.115Z,8.60
2019-04-28T07:25:58.745Z,10.32
2019-04-28T07:27:03.327Z,9.73
2019-04-28T07:28:08.921Z,11.78
2019-04-28T07:29:14.067Z,13.68
2019-04-28T07:30:19.039Z,11.33
2019-04-28T07:31:24.701Z,12.85
2019-04-28T07:32:29.328Z,10.95
2019-04-28T07:33:36.162Z,9.43
2019-04-28T07:34:39.883Z,13.00
2019-04-28T07:35:46.835Z,9.80
2019-04-28T07:36:51.335Z,14.55
2019-04-28T07:37:55.785Z,13.62
2019-04-28T07:39:00.515Z,13.70
2019-04-28T07:40:05.424Z,9.88
2019-04-28T07:41:11.335Z,13.38
2019-04-28T07:42:16.135Z,12.00
2019-04-28T07:43:20.601Z,12.95
2019-04-28T07:44:25.089Z,16.10
2019-04-28T07:45:29.462Z,13.28
2019-04-28T07:46:35.881Z,7.60
2019-04-28T07:47:40.348Z,10.78
2019-04-28T07:48:44.825Z,9.60
2019-04-28T07:49:49.976Z,10.35
2019-04-28T07:50:54.374Z,10.88
2019-04-28T07:52:17.948Z,13.58
2019-04-28T07:53:27.152Z,12.98
2019-04-28T07:54:31.569Z,9.83
2019-04-28T07:55:36.150Z,10.45
2019-04-28T07:56:42.364Z,11.28
2019-04-28T07:57:46.875Z,11.48
2019-04-28T07:58:51.513Z,13.13
2019-04-28T07:59:56.007Z,13.43
2019-04-28T08:01:00.528Z,9.88
2019-04-28T08:02:05.185Z,11.43
2019-04-28T08:03:10.310Z,16.52
2019-04-28T08:04:16.661Z,8.63
2019-04-28T08:05:21.296Z,9.70
2019-04-28T08:06:26.979Z,11.00
2019-04-28T08:07:31.510Z,9.78
2019-04-28T08:08:36.038Z,10.93
2019-04-28T08:09:40.872Z,12.63
2019-04-28T08:10:45.358Z,12.55
2019-04-28T08:11:50.042Z,11.65
2019-04-28T08:12:54.484Z,9.60
2019-04-28T08:13:59.018Z,12.30
2019-04-28T08:15:03.465Z,11.40
2019-04-28T08:16:07.973Z,10.38
2019-04-28T08:17:12.980Z,14.60
2019-04-28T08:18:17.660Z,10.18
2019-04-28T08:19:22.193Z,11.83
2019-04-28T08:20:26.714Z,10.18
2019-04-28T08:21:31.219Z,12.28
2019-04-28T08:22:35.734Z,11.93
2019-04-28T08:23:46.883Z,12.47
2019-04-28T08:24:46.331Z,11.63
2019-04-28T08:25:50.926Z,11.53
2019-04-28T08:26:55.600Z,16.60
2019-04-28T08:28:00.419Z,13.45
2019-04-28T08:29:04.914Z,13.70
2019-04-28T08:30:10.000Z,12.63
2019-04-28T08:31:16.269Z,12.35
2019-04-28T08:32:45.712Z,17.70
2019-04-28T08:34:02.692Z,10.90
2019-04-28T08:35:02.973Z,13.18
2019-04-28T08:36:07.373Z,12.73
2019-04-28T08:37:15.079Z,12.23
2019-04-28T08:38:19.566Z,16.25
2019-04-28T08:39:26.851Z,11.83
2019-04-28T08:40:31.369Z,13.28
2019-04-28T08:41:35.705Z,13.85
2019-04-28T08:42:40.501Z,11.78
2019-04-28T08:43:44.938Z,11.57
2019-04-28T08:44:49.486Z,11.03
2019-04-28T08:45:53.981Z,14.05
2019-04-28T08:46:58.408Z,10.55
2019-04-28T08:48:03.904Z,11.22
2019-04-28T08:49:08.346Z,12.85
2019-04-28T08:50:13.715Z,7.85
2019-04-28T08:51:20.059Z,8.10
2019-04-28T08:52:24.522Z,8.18
2019-04-28T08:53:29.029Z,9.00
2019-04-28T08:54:33.649Z,6.30
2019-04-28T08:55:38.186Z,6.50
2019-04-28T08:56:42.994Z,8.25
2019-04-28T08:57:47.651Z,7.87
2019-04-28T08:58:52.038Z,7.05
2019-04-28T08:59:56.637Z,6.78
2019-04-28T09:01:03.845Z,9.65
2019-04-28T09:02:08.541Z,13.68
2019-04-28T09:03:15.354Z,9.10
2019-04-28T09:04:19.532Z,10.05
2019-04-28T09:05:24.118Z,8.33
2019-04-28T09:06:28.490Z,10.00
2019-04-28T09:07:33.126Z,10.95
2019-04-28T09:08:37.673Z,12.33
2019-04-28T09:09:43.649Z,10.48
2019-04-28T09:10:48.059Z,10.93
2019-04-28T09:11:52.904Z,12.00
2019-04-28T09:12:57.373Z,10.48
2019-04-28T09:14:01.908Z,10.40
2019-04-28T09:15:07.098Z,12.05
2019-04-28T09:16:11.775Z,11.57
2019-04-28T09:17:16.224Z,9.93
2019-04-28T09:18:20.692Z,16.57
2019-04-28T09:19:25.150Z,9.15
2019-04-28T09:20:29.682Z,12.33
2019-04-28T09:21:34.088Z,11.43
2019-04-28T09:22:38.451Z,13.30
2019-04-28T09:23:42.969Z,13.58
2019-04-28T09:24:47.454Z,9.40
2019-04-28T09:25:52.204Z,9.08
2019-04-28T09:26:56.576Z,11.38
2019-04-28T09:28:01.011Z,14.93
2019-04-28T09:29:05.562Z,12.13
2019-04-28T09:30:10.174Z,10.78
2019-04-28T09:31:14.854Z,14.95
2019-04-28T09:32:19.392Z,11.10
2019-04-28T09:33:24.067Z,11.50
2019-04-28T09:34:29.518Z,11.80
2019-04-28T09:35:33.932Z,9.68
2019-04-28T09:36:39.805Z,9.40
2019-04-28T09:37:44.213Z,10.08
2019-04-28T09:38:48.771Z,12.33
2019-04-28T09:40:12.465Z,9.88
2019-04-28T09:41:17.148Z,9.18
2019-04-28T09:42:55.949Z,9.88
2019-04-28T09:44:16.359Z,6.42
2019-04-28T09:45:23.826Z,10.00
2019-04-28T09:46:33.957Z,7.53
2019-04-28T09:47:38.583Z,6.30
2019-04-28T09:48:52.412Z,8.28
2019-04-28T09:49:58.100Z,8.93
2019-04-28T09:51:02.605Z,7.75
2019-04-28T09:52:06.973Z,9.58
2019-04-28T09:53:11.741Z,8.43
2019-04-28T09:54:16.346Z,9.90
2019-04-28T09:55:20.775Z,7.00
2019-04-28T09:56:25.125Z,8.30
2019-04-28T09:57:30.692Z,8.73
2019-04-28T09:58:35.351Z,7.35
2019-04-28T09:59:39.913Z,12.25
2019-04-28T10:00:44.579Z,9.48
2019-04-28T10:01:49.092Z,6.92
2019-04-28T10:02:53.514Z,8.03
2019-04-28T10:03:58.169Z,11.20
2019-04-28T10:05:02.729Z,9.03
2019-04-28T10:06:07.424Z,12.50
2019-04-28T10:07:12.198Z,8.10
2019-04-28T10:08:16.899Z,9.25
2019-04-28T10:09:22.621Z,10.43
2019-04-28T10:10:27.207Z,12.25
2019-04-28T10:11:31.632Z,11.68
2019-04-28T10:12:36.290Z,9.75
2019-04-28T10:13:40.868Z,12.53
2019-04-28T10:14:45.383Z,11.50
2019-04-28T10:15:50.140Z,10.25
2019-04-28T10:16:54.667Z,12.07
2019-04-28T10:17:59.239Z,10.58
2019-04-28T10:19:03.676Z,12.15
2019-04-28T10:20:08.685Z,11.12
2019-04-28T10:21:13.803Z,13.60
2019-04-28T10:22:18.413Z,9.68
2019-04-28T10:23:22.876Z,10.08
2019-04-28T10:24:27.315Z,11.12
2019-04-28T10:25:31.681Z,9.28
2019-04-28T10:26:36.180Z,11.38
2019-04-28T10:27:40.992Z,12.90
2019-04-28T10:28:45.389Z,8.63
2019-04-28T10:29:51.749Z,11.30
2019-04-28T10:30:56.415Z,9.25
2019-04-28T10:32:00.865Z,7.40
2019-04-28T10:33:05.501Z,8.68
2019-04-28T10:34:10.083Z,10.65
2019-04-28T10:35:15.721Z,10.08
2019-04-28T10:36:20.150Z,7.97
2019-04-28T10:37:24.669Z,7.67
2019-04-28T10:38:30.381Z,7.97
2019-04-28T10:39:49.609Z,7.08
2019-04-28T10:41:01.881Z,7.92
2019-04-28T10:42:06.615Z,6.62
2019-04-28T10:43:11.909Z,5.35
2019-04-28T10:44:16.352Z,6.03
2019-04-28T10:45:23.902Z,7.15
2019-04-28T10:46:28.481Z,4.75
2019-04-28T10:47:33.044Z,7.85
2019-04-28T10:48:37.956Z,7.00
2019-04-28T10:49:42.881Z,5.95
2019-04-28T10:50:49.164Z,5.22
2019-04-28T10:51:59.510Z,7.95
2019-04-28T10:53:01.914Z,6.30
2019-04-28T10:54:06.566Z,4.75
2019-04-28T10:55:13.003Z,6.50
2019-04-28T10:56:17.757Z,5.22
2019-04-28T10:57:22.375Z,6.05
2019-04-28T10:58:26.922Z,9.30
2019-04-28T10:59:33.028Z,5.70
2019-04-28T11:00:38.759Z,4.97
2019-04-28T11:01:43.279Z,5.33
2019-04-28T11:02:48.281Z,8.25
2019-04-28T11:03:55.934Z,9.15
2019-04-28T11:05:16.863Z,6.47
2019-04-28T11:06:22.460Z,7.30
2019-04-28T11:07:27.129Z,5.45
2019-04-28T11:08:43.974Z,6.83
2019-04-28T11:10:03.337Z,7.95
2019-04-28T11:11:26.783Z,7.65
2019-04-28T11:12:32.212Z,7.42
2019-04-28T11:13:36.939Z,7.10
2019-04-28T11:14:41.490Z,11.68
2019-04-28T11:15:45.941Z,5.37
2019-04-28T11:16:50.521Z,7.12
2019-04-28T11:17:55.124Z,9.53
2019-04-28T11:18:59.653Z,6.50
2019-04-28T11:20:04.615Z,6.53
2019-04-28T11:21:09.482Z,7.25
2019-04-28T11:22:15.573Z,6.50
2019-04-28T11:23:23.052Z,7.03
2019-04-28T11:24:26.535Z,8.18
2019-04-28T11:25:31.041Z,8.58
2019-04-28T11:26:35.547Z,5.90
2019-04-28T11:27:40.211Z,7.30
2019-04-28T11:28:44.878Z,9.28
2019-04-28T11:29:49.466Z,10.78
2019-04-28T11:30:54.096Z,7.05
2019-04-28T11:31:58.587Z,7.95
2019-04-28T11:33:27.747Z,8.88
2019-04-28T11:34:39.047Z,6.67
2019-04-28T11:35:43.656Z,8.75
2019-04-28T11:36:48.339Z,7.90
2019-04-28T11:37:53.029Z,8.83
2019-04-28T11:38:57.705Z,9.10
2019-04-28T11:40:02.174Z,7.80
2019-04-28T11:41:06.964Z,8.58
2019-04-28T11:42:12.075Z,7.35
2019-04-28T11:43:16.990Z,9.58
2019-04-28T11:44:21.573Z,8.85
2019-04-28T11:45:27.484Z,7.42
2019-04-28T11:46:32.113Z,6.33
2019-04-28T11:47:38.162Z,9.83
2019-04-28T11:48:42.828Z,9.08
2019-04-28T11:49:47.404Z,9.25
2019-04-28T11:50:52.122Z,9.40
2019-04-28T11:51:57.933Z,7.37
2019-04-28T11:53:02.560Z,10.63
2019-04-28T11:54:08.022Z,8.15
2019-04-28T11:55:14.055Z,10.55
2019-04-28T11:56:18.840Z,8.13
2019-04-28T11:57:23.356Z,8.45
2019-04-28T11:58:28.898Z,9.05
2019-04-28T11:59:33.437Z,7.67
2019-04-28T12:00:38.772Z,7.78
2019-04-28T12:01:43.346Z,7.97
2019-04-28T12:02:47.964Z,8.70
2019-04-28T12:03:54.685Z,8.98
2019-04-28T12:04:59.902Z,6.95
2019-04-28T12:06:04.469Z,5.67
2019-04-28T12:07:08.932Z,6.03
2019-04-28T12:08:13.749Z,7.62
2019-04-28T12:10:03.737Z,9.25
2019-04-28T12:11:26.467Z,6.78
2019-04-28T12:12:43.244Z,7.53
2019-04-28T12:13:58.363Z,5.75
2019-04-28T12:15:16.308Z,9.13
2019-04-28T12:16:37.687Z,7.50
2019-04-28T12:18:00.494Z,7.67
2019-04-28T12:19:29.769Z,8.35
2019-04-28T12:20:34.154Z,7.90
2019-04-28T12:21:38.726Z,6.35
2019-04-28T12:22:43.241Z,9.63
2019-04-28T12:23:47.619Z,9.48
2019-04-28T12:24:52.152Z,8.30
2019-04-28T12:25:56.722Z,7.45
2019-04-28T12:27:01.226Z,7.58
2019-04-28T12:28:06.069Z,7.78
2019-04-28T12:29:10.678Z,7.80
2019-04-28T12:30:15.597Z,8.18
2019-04-28T12:31:20.084Z,6.12
2019-04-28T12:32:24.476Z,7.25
2019-04-28T12:33:28.969Z,10.25
2019-04-28T12:34:33.492Z,6.28
2019-04-28T12:35:47.565Z,7.33
2019-04-28T12:36:44.202Z,9.50
2019-04-28T12:37:48.687Z,6.35
2019-04-28T12:38:53.330Z,5.17
2019-04-28T12:39:57.883Z,8.05
2019-04-28T12:41:02.572Z,7.20
2019-04-28T12:42:07.242Z,8.00
2019-04-28T12:43:12.759Z,7.40
2019-04-28T12:44:17.974Z,7.42
2019-04-28T12:45:34.482Z,6.78
2019-04-28T12:46:28.656Z,6.37
2019-04-28T12:47:33.438Z,7.95
2019-04-28T12:48:39.651Z,9.20
2019-04-28T12:50:03.138Z,7.12
2019-04-28T12:51:07.683Z,5.50
2019-04-28T12:52:13.330Z,7.72
2019-04-28T12:53:18.022Z,6.80
2019-04-28T12:54:24.894Z,7.78
2019-04-28T12:55:29.588Z,6.80
2019-04-28T12:56:35.553Z,9.68
2019-04-28T12:57:40.051Z,5.28
2019-04-28T12:58:44.524Z,6.03
2019-04-28T12:59:56.759Z,6.50
2019-04-28T13:01:32.281Z,7.33
2019-04-28T13:03:01.456Z,7.55
2019-04-28T13:04:17.393Z,7.47
2019-04-28T13:05:21.879Z,6.80
2019-04-28T13:06:27.967Z,6.87
2019-04-28T13:07:32.498Z,6.50
2019-04-28T13:08:38.565Z,7.83
2019-04-28T13:09:43.009Z,5.55
2019-04-28T13:10:47.537Z,4.55
2019-04-28T13:11:52.011Z,5.20
2019-04-28T13:12:58.037Z,6.67
2019-04-28T13:14:02.533Z,5.03
2019-04-28T13:15:07.106Z,8.23
2019-04-28T13:16:11.940Z,6.47
2019-04-28T13:17:16.747Z,6.20
2019-04-28T13:18:21.282Z,5.87
2019-04-28T13:19:25.929Z,6.05
2019-04-28T13:20:31.670Z,7.42
2019-04-28T13:21:36.174Z,7.08
2019-04-28T13:22:40.986Z,7.05
2019-04-28T13:23:45.584Z,5.28
2019-04-28T13:24:50.023Z,6.37
2019-04-28T13:25:54.545Z,6.40
2019-04-28T13:26:59.100Z,5.75
2019-04-28T13:28:05.067Z,7.05
2019-04-28T13:29:09.734Z,9.68
2019-04-28T13:30:14.854Z,7.33
2019-04-28T13:31:19.665Z,6.55
2019-04-28T13:32:24.219Z,5.70
2019-04-28T13:33:28.701Z,5.10
2019-04-28T13:34:35.126Z,7.50
2019-04-28T13:35:39.807Z,5.70
2019-04-28T13:36:44.440Z,4.30
2019-04-28T13:37:48.920Z,6.90
2019-04-28T13:38:54.382Z,6.70
2019-04-28T13:40:01.883Z,4.05
2019-04-28T13:41:06.475Z,6.50
2019-04-28T13:42:12.531Z,5.35
2019-04-28T13:43:17.133Z,4.47
2019-04-28T13:44:39.600Z,7.22
2019-04-28T13:45:44.225Z,4.58
2019-04-28T13:46:50.034Z,5.75
2019-04-28T13:47:54.553Z,6.03
2019-04-28T13:48:59.132Z,4.70
2019-04-28T13:50:23.528Z,6.00
2019-04-28T13:51:27.975Z,3.98
2019-04-28T13:52:34.335Z,4.80
2019-04-28T13:53:38.941Z,8.00
2019-04-28T13:54:45.816Z,6.45
2019-04-28T13:55:57.579Z,7.45
2019-04-28T13:57:02.001Z,5.35
2019-04-28T13:58:06.573Z,6.28
2019-04-28T13:59:16.140Z,4.42
2019-04-28T14:00:26.725Z,8.48
2019-04-28T14:01:53.059Z,4.95
2019-04-28T14:03:08.142Z,4.65
2019-04-28T14:04:24.528Z,6.92
2019-04-28T14:05:47.918Z,4.83
2019-04-28T14:06:55.234Z,5.65
2019-04-28T14:07:59.737Z,5.10
2019-04-28T14:09:08.033Z,5.58
2019-04-28T14:10:13.123Z,7.25
2019-04-28T14:11:17.694Z,4.65
2019-04-28T14:12:22.496Z,5.92
2019-04-28T14:13:28.072Z,5.87
2019-04-28T14:14:32.533Z,6.70
2019-04-28T14:15:37.044Z,5.03
2019-04-28T14:16:41.566Z,5.20
2019-04-28T14:17:45.966Z,6.67
2019-04-28T14:18:51.739Z,6.17
2019-04-28T14:19:56.412Z,4.15
2019-04-28T14:21:01.004Z,4.87
2019-04-28T14:22:05.438Z,6.28
2019-04-28T14:23:10.193Z,5.00
2019-04-28T14:24:14.987Z,6.20
2019-04-28T14:25:20.836Z,7.03
2019-04-28T14:26:25.497Z,4.92
2019-04-28T14:27:30.117Z,6.40
2019-04-28T14:28:34.644Z,4.92
2019-04-28T14:29:40.488Z,5.35
2019-04-28T14:30:44.991Z,8.83
2019-04-28T14:31:49.381Z,5.20
2019-04-28T14:32:54.907Z,7.10
2019-04-28T14:34:01.586Z,5.28
2019-04-28T14:35:06.402Z,7.95